Time;durP1;ratioP1;P1;durP2;ratioP2;P2;SDS_P1;SDS_P2;PMS_P1;PMS_P2;Temp;Humidity;BMP_temperature;BMP_pressure;BME280_temperature;BME280_humidity;BME280_pressure;Samples;Min_cycle;Max_cycle;Signal;HPM_P1;HPM_P2
2023/05/03 00:00:45;;;;;;;10.45;4.65;;;;;;;;;;4995067;28;20045;-73
2023/05/03 00:03:12;;;;;;;9.40;4.30;;;;;;;;;;4994744;28;20022;-73
2023/05/03 00:05:38;;;;;;;9.57;4.88;;;;;;;;;;5012502;28;20030;-73
2023/05/03 00:08:04;;;;;;;10.23;4.95;;;;;;;;;;4994867;28;20022;-73
2023/05/03 00:10:30;;;;;;;13.90;5.03;;;;;;;;;;5012874;28;20033;-72
2023/05/03 00:12:56;;;;;;;7.22;5.15;;;;;;;;;;5012538;28;20520;-72
2023/05/03 00:15:22;;;;;;;17.33;5.82;;;;;;;;;;5010767;28;20060;-72
2023/05/03 00:17:48;;;;;;;12.45;6.15;;;;;;;;;;5010840;28;20120;-72
2023/05/03 00:20:14;;;;;;;17.88;6.47;;;;;;;;;;4994200;28;20037;-72
2023/05/03 00:22:40;;;;;;;13.80;5.97;;;;;;;;;;5011866;28;20018;-72
2023/05/03 00:25:09;;;;;;;13.52;5.32;;;;;;;;;;5012060;28;20041;-72
2023/05/03 00:27:35;;;;;;;13.63;5.53;;;;;;;;;;5012804;28;20026;-72
2023/05/03 00:30:01;;;;;;;14.32;6.22;;;;;;;;;;5012483;28;20105;-72
2023/05/03 00:32:27;;;;;;;15.02;5.70;;;;;;;;;;5022619;28;20390;-72
2023/05/03 00:34:57;;;;;;;13.40;6.20;;;;;;;;;;5031723;28;20555;-73
2023/05/03 00:37:24;;;;;;;9.32;5.40;;;;;;;;;;5031516;28;20037;-72
2023/05/03 00:39:50;;;;;;;13.40;5.82;;;;;;;;;;5013852;28;20079;-73
2023/05/03 00:42:16;;;;;;;19.50;5.85;;;;;;;;;;5014111;28;20071;-73
2023/05/03 00:44:42;;;;;;;13.18;5.97;;;;;;;;;;5019083;28;20022;-72
2023/05/03 00:47:08;;;;;;;15.80;6.10;;;;;;;;;;5013409;28;20029;-73
2023/05/03 00:49:34;;;;;;;15.68;6.03;;;;;;;;;;5011949;28;20097;-73
2023/05/03 00:52:01;;;;;;;9.77;6.15;;;;;;;;;;5011954;28;20036;-73
2023/05/03 00:54:27;;;;;;;14.48;5.43;;;;;;;;;;5012044;28;20488;-73
2023/05/03 00:56:55;;;;;;;17.30;6.30;;;;;;;;;;5012044;28;20432;-73
2023/05/03 00:59:21;;;;;;;12.82;6.40;;;;;;;;;;5011823;28;20026;-73
2023/05/03 01:01:51;;;;;;;15.93;6.65;;;;;;;;;;5011896;28;20057;-72
2023/05/03 01:04:17;;;;;;;11.38;5.65;;;;;;;;;;5011823;28;20427;-73
2023/05/03 01:07:02;;;;;;;11.38;5.93;;;;;;;;;;5011867;28;20030;-72
2023/05/03 01:09:38;;;;;;;14.20;5.95;;;;;;;;;;5011671;28;20472;-72
2023/05/03 01:12:10;;;;;;;9.43;5.55;;;;;;;;;;5011841;28;20038;-72
2023/05/03 01:14:36;;;;;;;12.70;5.72;;;;;;;;;;5011752;28;20026;-73
2023/05/03 01:17:07;;;;;;;15.82;5.20;;;;;;;;;;4994017;28;20022;-72
2023/05/03 01:19:37;;;;;;;11.98;5.60;;;;;;;;;;5011751;28;20088;-72
2023/05/03 01:22:21;;;;;;;16.83;5.90;;;;;;;;;;5011703;28;20026;-72
2023/05/03 01:24:51;;;;;;;13.82;5.63;;;;;;;;;;4994137;28;20408;-72
2023/05/03 01:27:18;;;;;;;14.45;5.97;;;;;;;;;;5012643;28;20034;-72
2023/05/03 01:29:44;;;;;;;7.70;4.95;;;;;;;;;;5015455;28;20022;-72
2023/05/03 01:32:15;;;;;;;13.65;5.22;;;;;;;;;;5015249;28;20034;-72
2023/05/03 01:34:53;;;;;;;12.45;5.78;;;;;;;;;;5015153;28;20080;-73
2023/05/03 01:37:19;;;;;;;11.13;5.28;;;;;;;;;;5014842;28;20408;-72
2023/05/03 01:40:00;;;;;;;9.13;4.82;;;;;;;;;;5015249;28;20133;-72
2023/05/03 01:42:26;;;;;;;7.97;5.38;;;;;;;;;;5015209;28;20053;-73
2023/05/03 01:44:53;;;;;;;13.93;5.43;;;;;;;;;;5015208;28;20033;-72
2023/05/03 01:47:19;;;;;;;11.32;5.05;;;;;;;;;;4996833;28;20633;-72
2023/05/03 01:49:45;;;;;;;12.77;5.15;;;;;;;;;;5014946;28;20023;-72
2023/05/03 01:52:11;;;;;;;10.77;4.18;;;;;;;;;;4999818;28;20041;-72
2023/05/03 01:54:37;;;;;;;7.03;4.28;;;;;;;;;;5015199;28;20030;-72
2023/05/03 01:57:04;;;;;;;12.35;4.40;;;;;;;;;;5014874;28;20037;-72
2023/05/03 01:59:30;;;;;;;7.90;4.53;;;;;;;;;;5014663;28;20033;-72
2023/05/03 02:01:56;;;;;;;10.70;3.92;;;;;;;;;;5014630;28;20025;-72
2023/05/03 02:04:22;;;;;;;7.65;3.63;;;;;;;;;;5014812;28;20025;-73
2023/05/03 02:06:48;;;;;;;10.80;4.00;;;;;;;;;;5014308;28;20048;-72
2023/05/03 02:09:14;;;;;;;11.82;4.38;;;;;;;;;;5014131;28;20488;-72
2023/05/03 02:11:40;;;;;;;8.50;4.18;;;;;;;;;;4996869;28;20037;-72
2023/05/03 02:14:06;;;;;;;8.30;3.88;;;;;;;;;;5014357;28;20025;-72
2023/05/03 02:16:32;;;;;;;11.88;4.28;;;;;;;;;;5014132;28;20051;-72
2023/05/03 02:18:58;;;;;;;8.43;3.58;;;;;;;;;;4996354;28;20465;-72
2023/05/03 02:21:25;;;;;;;10.63;3.95;;;;;;;;;;5012898;28;20040;-71
2023/05/03 02:23:53;;;;;;;13.60;4.20;;;;;;;;;;5032560;28;20083;-72
2023/05/03 02:26:19;;;;;;;8.98;4.15;;;;;;;;;;5027808;28;20142;-71
2023/05/03 02:28:45;;;;;;;10.13;4.20;;;;;;;;;;5012751;28;20049;-71
2023/05/03 02:31:12;;;;;;;7.65;4.18;;;;;;;;;;5014158;28;20053;-72
2023/05/03 02:33:38;;;;;;;9.23;4.00;;;;;;;;;;4996519;28;20026;-72
2023/05/03 02:36:04;;;;;;;6.55;3.65;;;;;;;;;;5014195;28;20052;-72
2023/05/03 02:38:30;;;;;;;9.60;3.67;;;;;;;;;;5013054;28;20037;-72
2023/05/03 02:40:56;;;;;;;5.80;3.50;;;;;;;;;;5013953;28;20021;-72
2023/05/03 02:43:23;;;;;;;7.45;3.47;;;;;;;;;;5013807;28;20029;-72
2023/05/03 02:45:49;;;;;;;9.40;3.95;;;;;;;;;;5013879;28;20033;-73
2023/05/03 02:48:15;;;;;;;8.85;4.40;;;;;;;;;;5013684;28;20075;-73
2023/05/03 02:50:41;;;;;;;9.77;4.13;;;;;;;;;;5013875;28;20449;-72
2023/05/03 02:53:07;;;;;;;9.57;4.28;;;;;;;;;;5013843;28;20105;-73
2023/05/03 02:55:34;;;;;;;8.60;4.05;;;;;;;;;;5013655;28;20022;-72
2023/05/03 02:58:00;;;;;;;8.75;4.30;;;;;;;;;;5013271;28;20022;-73
2023/05/03 03:00:26;;;;;;;6.03;3.58;;;;;;;;;;5013789;28;20029;-73
2023/05/03 03:02:52;;;;;;;7.47;3.70;;;;;;;;;;5013656;28;20073;-73
2023/05/03 03:05:18;;;;;;;12.13;4.07;;;;;;;;;;4996095;28;20030;-73
2023/05/03 03:07:44;;;;;;;17.77;5.05;;;;;;;;;;5013072;28;20033;-72
2023/05/03 03:10:10;;;;;;;13.00;4.35;;;;;;;;;;5013280;28;20030;-73
2023/05/03 03:12:36;;;;;;;10.57;4.18;;;;;;;;;;5013388;28;20054;-73
2023/05/03 03:15:03;;;;;;;12.43;3.85;;;;;;;;;;5013236;28;20449;-73
2023/05/03 03:17:30;;;;;;;7.95;3.97;;;;;;;;;;5013085;28;20053;-72
2023/05/03 03:19:57;;;;;;;16.23;4.38;;;;;;;;;;5013192;28;20029;-73
2023/05/03 03:22:24;;;;;;;10.55;3.88;;;;;;;;;;5013407;28;20034;-73
2023/05/03 03:24:50;;;;;;;14.63;4.47;;;;;;;;;;5012995;28;20105;-73
2023/05/03 03:27:16;;;;;;;8.30;4.10;;;;;;;;;;5012890;28;20079;-72
2023/05/03 03:29:42;;;;;;;9.20;3.70;;;;;;;;;;5013435;28;20030;-72
2023/05/03 03:32:08;;;;;;;13.85;4.53;;;;;;;;;;5013096;28;20480;-73
2023/05/03 03:34:34;;;;;;;9.73;4.38;;;;;;;;;;5012814;28;20032;-73
2023/05/03 03:37:00;;;;;;;7.78;4.20;;;;;;;;;;5012703;28;20112;-73
2023/05/03 03:39:26;;;;;;;9.65;4.35;;;;;;;;;;5012914;28;20064;-73
2023/05/03 03:41:52;;;;;;;10.07;3.95;;;;;;;;;;5012751;28;20077;-74
2023/05/03 03:44:18;;;;;;;10.63;4.43;;;;;;;;;;5012828;28;20486;-73
2023/05/03 03:46:44;;;;;;;10.68;4.88;;;;;;;;;;4994955;28;20060;-74
2023/05/03 03:49:10;;;;;;;10.85;4.30;;;;;;;;;;5012653;28;20125;-71
2023/05/03 03:51:37;;;;;;;9.48;3.70;;;;;;;;;;5012016;28;20619;-74
2023/05/03 03:54:04;;;;;;;10.07;4.32;;;;;;;;;;5013850;28;20022;-74
2023/05/03 03:56:30;;;;;;;8.07;4.20;;;;;;;;;;5015645;28;20117;-73
2023/05/03 03:58:56;;;;;;;11.00;5.03;;;;;;;;;;5017199;28;20072;-73
2023/05/03 04:01:22;;;;;;;9.18;4.03;;;;;;;;;;5013882;28;20647;-73
2023/05/03 04:03:48;;;;;;;8.23;3.65;;;;;;;;;;5014061;28;20065;-73
2023/05/03 04:06:14;;;;;;;7.95;3.90;;;;;;;;;;5013653;28;20030;-73
2023/05/03 04:08:40;;;;;;;10.68;3.72;;;;;;;;;;5011826;28;20567;-73
2023/05/03 04:11:11;;;;;;;10.48;3.90;;;;;;;;;;5012164;28;20121;-73
2023/05/03 04:13:37;;;;;;;7.43;3.55;;;;;;;;;;5012687;28;20026;-73
2023/05/03 04:16:03;;;;;;;5.93;3.10;;;;;;;;;;5010447;28;20025;-73
2023/05/03 04:18:29;;;;;;;9.48;3.50;;;;;;;;;;5011649;28;20508;-73
2023/05/03 04:20:55;;;;;;;6.43;3.65;;;;;;;;;;5011889;28;20026;-73
2023/05/03 04:23:21;;;;;;;7.60;3.22;;;;;;;;;;5011880;28;20033;-73
2023/05/03 04:25:47;;;;;;;7.00;3.13;;;;;;;;;;5010624;28;20026;-74
2023/05/03 04:28:14;;;;;;;7.00;3.53;;;;;;;;;;5011265;28;20038;-74
2023/05/03 04:30:40;;;;;;;5.93;3.35;;;;;;;;;;4994266;28;20053;-73
2023/05/03 04:33:06;;;;;;;8.85;3.20;;;;;;;;;;4994559;28;20595;-74
2023/05/03 04:35:33;;;;;;;7.47;2.75;;;;;;;;;;5012007;28;20369;-73
2023/05/03 04:38:00;;;;;;;5.28;2.75;;;;;;;;;;5011566;28;20033;-74
2023/05/03 04:40:26;;;;;;;6.60;2.85;;;;;;;;;;5012141;28;20064;-74
2023/05/03 04:42:52;;;;;;;6.05;3.30;;;;;;;;;;5012524;28;20396;-74
2023/05/03 04:45:19;;;;;;;5.90;2.97;;;;;;;;;;4992295;28;20037;-74
2023/05/03 04:47:46;;;;;;;10.52;3.13;;;;;;;;;;5012415;28;20018;-74
2023/05/03 04:50:12;;;;;;;6.25;2.60;;;;;;;;;;4994528;28;20026;-74
2023/05/03 04:52:38;;;;;;;9.25;2.80;;;;;;;;;;5018663;28;20038;-74
2023/05/03 04:55:05;;;;;;;5.10;2.67;;;;;;;;;;5032147;28;20053;-73
2023/05/03 04:57:31;;;;;;;6.95;3.30;;;;;;;;;;5032101;28;20108;-72
2023/05/03 04:59:57;;;;;;;9.15;3.30;;;;;;;;;;5032959;28;20104;-73
2023/05/03 05:02:23;;;;;;;7.22;2.65;;;;;;;;;;5017309;28;20112;-73
2023/05/03 05:04:49;;;;;;;5.88;2.83;;;;;;;;;;5036754;28;20022;-73
2023/05/03 05:07:16;;;;;;;18.85;7.40;;;;;;;;;;5033991;28;20057;-73
2023/05/03 05:09:42;;;;;;;8.48;3.88;;;;;;;;;;4998863;28;20029;-73
2023/05/03 05:12:08;;;;;;;6.88;2.85;;;;;;;;;;5016610;28;20026;-73
2023/05/03 05:14:34;;;;;;;7.90;2.88;;;;;;;;;;5016324;28;20018;-72
2023/05/03 05:17:00;;;;;;;5.47;2.70;;;;;;;;;;5015883;28;20484;-73
2023/05/03 05:19:26;;;;;;;11.30;3.03;;;;;;;;;;4996278;28;20079;-73
2023/05/03 05:21:52;;;;;;;7.63;3.17;;;;;;;;;;5016651;28;20037;-73
2023/05/03 05:24:18;;;;;;;4.13;2.28;;;;;;;;;;5015224;28;20026;-73
2023/05/03 05:26:45;;;;;;;4.70;2.38;;;;;;;;;;5022208;28;20029;-73
2023/05/03 05:29:11;;;;;;;5.25;2.20;;;;;;;;;;5015115;28;20519;-74
2023/05/03 05:31:37;;;;;;;6.15;2.53;;;;;;;;;;4997342;28;20373;-73
2023/05/03 05:34:03;;;;;;;9.95;3.38;;;;;;;;;;5015200;28;20029;-74
2023/05/03 05:36:30;;;;;;;4.40;2.60;;;;;;;;;;5013909;28;20030;-74
2023/05/03 05:38:56;;;;;;;4.72;2.35;;;;;;;;;;5013850;28;20156;-74
2023/05/03 05:41:22;;;;;;;11.98;2.45;;;;;;;;;;5014906;28;20026;-74
2023/05/03 05:43:48;;;;;;;8.32;2.55;;;;;;;;;;5015193;28;20021;-73
2023/05/03 05:46:14;;;;;;;7.20;2.58;;;;;;;;;;5015043;28;20113;-74
2023/05/03 05:48:41;;;;;;;4.38;2.38;;;;;;;;;;5014861;28;20041;-73
2023/05/03 05:51:07;;;;;;;6.00;2.75;;;;;;;;;;5014736;28;20109;-73
2023/05/03 05:53:33;;;;;;;8.77;2.78;;;;;;;;;;5014904;28;20109;-72
2023/05/03 05:55:59;;;;;;;4.32;2.50;;;;;;;;;;4996759;28;20128;-73
2023/05/03 05:58:25;;;;;;;9.88;2.80;;;;;;;;;;5014874;28;20032;-73
2023/05/03 06:00:51;;;;;;;9.57;3.33;;;;;;;;;;4985165;28;20441;-72
2023/05/03 06:03:17;;;;;;;11.48;2.75;;;;;;;;;;4994693;28;20045;-72
2023/05/03 06:05:43;;;;;;;5.60;3.05;;;;;;;;;;4993898;28;20061;-71
2023/05/03 06:08:10;;;;;;;8.00;2.53;;;;;;;;;;5008615;28;20032;-72
2023/05/03 06:10:36;;;;;;;7.68;2.80;;;;;;;;;;5013987;28;20053;-72
2023/05/03 06:13:02;;;;;;;9.95;3.03;;;;;;;;;;5013787;28;20025;-72
2023/05/03 06:15:28;;;;;;;10.23;3.05;;;;;;;;;;5013099;28;20026;-71
2023/05/03 06:17:54;;;;;;;5.10;2.50;;;;;;;;;;4995679;28;20026;-71
2023/05/03 06:20:23;;;;;;;10.40;2.95;;;;;;;;;;4996551;28;20026;-72
2023/05/03 06:22:48;;;;;;;10.93;2.97;;;;;;;;;;5013540;28;20026;-73
2023/05/03 06:25:15;;;;;;;5.35;2.90;;;;;;;;;;5013462;28;20053;-73
2023/05/03 06:27:41;;;;;;;8.00;2.53;;;;;;;;;;5001864;23;20051;-74
2023/05/03 06:30:07;;;;;;;7.68;2.47;;;;;;;;;;4940641;28;20035;-74
2023/05/03 06:32:33;;;;;;;6.28;2.90;;;;;;;;;;4936107;29;20036;-74
2023/05/03 06:35:00;;;;;;;5.10;2.17;;;;;;;;;;4936748;29;20027;-74
2023/05/03 06:37:26;;;;;;;8.00;2.55;;;;;;;;;;4936188;29;20024;-74
2023/05/03 06:39:52;;;;;;;7.93;2.90;;;;;;;;;;4935422;29;20506;-74
2023/05/03 06:42:18;;;;;;;7.40;2.33;;;;;;;;;;4935485;29;20513;-75
2023/05/03 06:44:44;;;;;;;6.97;2.78;;;;;;;;;;4936790;29;20054;-75
2023/05/03 06:47:10;;;;;;;7.28;2.45;;;;;;;;;;4935322;29;20079;-74
2023/05/03 06:49:36;;;;;;;6.50;2.30;;;;;;;;;;4938746;29;20024;-74
2023/05/03 06:52:02;;;;;;;6.25;2.20;;;;;;;;;;4937370;29;20091;-75
2023/05/03 06:54:28;;;;;;;3.80;1.98;;;;;;;;;;4936127;29;20486;-76
2023/05/03 06:56:54;;;;;;;6.72;2.65;;;;;;;;;;4935889;29;20039;-74
2023/05/03 06:59:23;;;;;;;8.25;2.00;;;;;;;;;;4935991;29;20024;-75
2023/05/03 07:01:50;;;;;;;8.25;2.20;;;;;;;;;;4935962;29;20079;-74
2023/05/03 07:04:16;;;;;;;6.88;2.15;;;;;;;;;;4934677;29;20054;-75
2023/05/03 07:06:42;;;;;;;6.45;2.13;;;;;;;;;;4943405;28;20031;-74
2023/05/03 07:09:09;;;;;;;5.00;2.55;;;;;;;;;;4945491;28;20026;-74
2023/05/03 07:11:38;;;;;;;4.60;1.67;;;;;;;;;;4944821;29;20027;-75
2023/05/03 07:14:04;;;;;;;6.47;2.33;;;;;;;;;;4943719;28;20032;-75
2023/05/03 07:16:30;;;;;;;7.60;2.40;;;;;;;;;;4945650;29;20034;-76
2023/05/03 07:18:56;;;;;;;5.72;2.33;;;;;;;;;;4944777;28;20027;-75
2023/05/03 07:21:22;;;;;;;3.45;2.00;;;;;;;;;;4943960;28;20025;-76
2023/05/03 07:23:48;;;;;;;4.35;2.10;;;;;;;;;;4945851;28;20015;-75
2023/05/03 07:26:14;;;;;;;7.07;2.38;;;;;;;;;;4944191;28;20586;-75
2023/05/03 07:28:40;;;;;;;3.28;1.67;;;;;;;;;;4943964;29;20035;-75
2023/05/03 07:31:06;;;;;;;8.40;2.15;;;;;;;;;;4945739;29;20039;-75
2023/05/03 07:33:36;;;;;;;4.50;1.83;;;;;;;;;;4944129;29;20393;-75
2023/05/03 07:36:02;;;;;;;3.33;1.80;;;;;;;;;;4944454;28;20019;-75
2023/05/03 07:38:28;;;;;;;5.60;1.95;;;;;;;;;;4946644;28;20024;-76
2023/05/03 07:40:54;;;;;;;7.82;1.85;;;;;;;;;;4947635;28;20032;-76
2023/05/03 07:43:22;;;;;;;5.60;2.03;;;;;;;;;;4946014;28;20031;-76
2023/05/03 07:45:48;;;;;;;4.57;2.00;;;;;;;;;;4943406;29;20016;-62
2023/05/03 07:48:14;;;;;;;7.07;2.88;;;;;;;;;;4944363;29;20035;-63
2023/05/03 07:50:44;;;;;;;7.00;3.00;;;;;;;;;;4944846;29;20015;-63
2023/05/03 07:53:11;;;;;;;6.60;2.42;;;;;;;;;;4943039;29;20382;-62
2023/05/03 07:55:37;;;;;;;6.38;2.28;;;;;;;;;;4943997;29;20027;-63
2023/05/03 07:58:03;;;;;;;3.88;1.98;;;;;;;;;;4944773;29;20120;-76
2023/05/03 08:00:29;;;;;;;5.68;2.17;;;;;;;;;;4943290;28;20026;-76
2023/05/03 08:02:55;;;;;;;5.78;2.05;;;;;;;;;;4944651;28;20482;-77
2023/05/03 08:05:22;;;;;;;7.10;2.13;;;;;;;;;;4944852;28;20054;-76
2023/05/03 08:07:48;;;;;;;3.97;1.98;;;;;;;;;;4943462;29;20454;-75
2023/05/03 08:10:14;;;;;;;6.55;2.00;;;;;;;;;;4944563;29;20031;-76
2023/05/03 08:12:40;;;;;;;5.45;2.33;;;;;;;;;;4948515;28;20375;-76
2023/05/03 08:15:07;;;;;;;5.03;2.10;;;;;;;;;;4941816;29;20074;-76
2023/05/03 08:17:43;;;;;;;8.57;2.67;;;;;;;;;;4942619;28;20490;-75
2023/05/03 08:20:10;;;;;;;5.70;2.20;;;;;;;;;;4948055;28;20058;-76
2023/05/03 08:22:40;;;;;;;6.00;2.17;;;;;;;;;;4954442;28;20058;-75
2023/05/03 08:27:31;;;;;;;8.38;2.60;;;;;;;;;;5013303;27;1942565;-74
2023/05/03 08:29:57;;;;;;;5.82;2.42;;;;;;;;;;5067332;28;20033;-75
2023/05/03 08:32:23;;;;;;;5.75;2.03;;;;;;;;;;5067277;28;20017;-76
2023/05/03 08:34:50;;;;;;;9.70;2.55;;;;;;;;;;5066905;28;20033;-75
2023/05/03 08:37:16;;;;;;;4.85;2.42;;;;;;;;;;5066845;28;20531;-75
2023/05/03 08:39:42;;;;;;;8.63;2.30;;;;;;;;;;5067044;28;20029;-75
2023/05/03 08:42:08;;;;;;;5.32;1.90;;;;;;;;;;5067151;28;20395;-75
2023/05/03 08:44:38;;;;;;;5.38;2.22;;;;;;;;;;5067332;28;20044;-76
2023/05/03 08:47:05;;;;;;;7.93;2.58;;;;;;;;;;5068419;28;20152;-74
2023/05/03 08:49:34;;;;;;;4.20;2.30;;;;;;;;;;5068508;28;20040;-75
2023/05/03 08:52:00;;;;;;;5.50;2.65;;;;;;;;;;5067848;28;20019;-75
2023/05/03 08:54:26;;;;;;;7.53;2.45;;;;;;;;;;5068298;28;20025;-75
2023/05/03 08:56:52;;;;;;;5.60;2.15;;;;;;;;;;5067930;28;20028;-75
2023/05/03 08:59:18;;;;;;;4.50;2.40;;;;;;;;;;5067350;28;20031;-76
2023/05/03 09:01:44;;;;;;;7.05;2.85;;;;;;;;;;5068048;28;20025;-76
2023/05/03 09:04:11;;;;;;;5.03;2.40;;;;;;;;;;5067887;28;20398;-75
2023/05/03 09:06:37;;;;;;;3.05;1.95;;;;;;;;;;5067890;28;20028;-75
2023/05/03 09:09:08;;;;;;;8.07;2.50;;;;;;;;;;5068124;28;20025;-77
2023/05/03 09:11:35;;;;;;;6.97;2.33;;;;;;;;;;5068119;28;20447;-75
2023/05/03 09:14:17;;;;;;;5.85;3.10;;;;;;;;;;5066290;28;20036;-75
2023/05/03 09:16:45;;;;;;;7.05;3.53;;;;;;;;;;5067219;28;20021;-75
2023/05/03 09:19:11;;;;;;;5.47;2.95;;;;;;;;;;5065916;28;20033;-75
2023/05/03 09:21:42;;;;;;;7.80;2.67;;;;;;;;;;5064765;28;20021;-75
2023/05/03 09:24:15;;;;;;;5.45;2.50;;;;;;;;;;5065607;28;20059;-75
2023/05/03 09:26:41;;;;;;;5.22;2.33;;;;;;;;;;5067529;28;20746;-75
2023/05/03 09:29:08;;;;;;;4.43;2.40;;;;;;;;;;5067435;28;20674;-74
2023/05/03 09:31:35;;;;;;;5.57;2.45;;;;;;;;;;5067916;28;20028;-75
2023/05/03 09:34:01;;;;;;;4.93;2.47;;;;;;;;;;5069524;28;20021;-76
2023/05/03 09:36:27;;;;;;;9.20;2.47;;;;;;;;;;5068502;28;20028;-75
2023/05/03 09:38:54;;;;;;;5.75;2.50;;;;;;;;;;5053244;28;20104;-76
2023/05/03 09:41:30;;;;;;;6.55;2.42;;;;;;;;;;5051836;28;20025;-76
2023/05/03 09:44:01;;;;;;;8.75;2.42;;;;;;;;;;5052231;28;20021;-74
2023/05/03 09:46:29;;;;;;;3.47;2.17;;;;;;;;;;5052435;28;20029;-77
2023/05/03 09:48:56;;;;;;;6.28;2.97;;;;;;;;;;5056149;28;20666;-75
2023/05/03 09:51:22;;;;;;;4.50;2.70;;;;;;;;;;5057331;28;20044;-76
2023/05/03 09:53:48;;;;;;;7.47;2.30;;;;;;;;;;5054018;28;20032;-77
2023/05/03 09:56:15;;;;;;;4.97;2.28;;;;;;;;;;5053669;28;20448;-74
2023/05/03 09:58:42;;;;;;;7.53;2.88;;;;;;;;;;5053635;28;20027;-75
2023/05/03 10:01:08;;;;;;;9.40;2.80;;;;;;;;;;5053824;28;20526;-75
2023/05/03 10:03:40;;;;;;;8.20;2.95;;;;;;;;;;5054080;28;20025;-75
2023/05/03 10:06:10;;;;;;;6.07;2.50;;;;;;;;;;5053671;28;20659;-75
2023/05/03 10:08:41;;;;;;;6.82;2.33;;;;;;;;;;5053503;28;20044;-75
2023/05/03 10:11:08;;;;;;;5.97;2.45;;;;;;;;;;5053832;28;20032;-75
2023/05/03 10:13:35;;;;;;;6.32;2.03;;;;;;;;;;5053968;28;20479;-76
2023/05/03 10:16:09;;;;;;;6.30;3.42;;;;;;;;;;5053696;28;20090;-75
2023/05/03 10:18:40;;;;;;;6.32;3.13;;;;;;;;;;5053217;28;20021;-75
2023/05/03 10:21:11;;;;;;;8.80;3.22;;;;;;;;;;5053411;28;20017;-76
2023/05/03 10:23:57;;;;;;;6.15;2.72;;;;;;;;;;5053475;28;20493;-76
2023/05/03 10:26:25;;;;;;;9.77;3.00;;;;;;;;;;5052985;28;20103;-76
2023/05/03 10:28:51;;;;;;;6.63;2.92;;;;;;;;;;5053334;28;20029;-76
2023/05/03 10:31:49;;;;;;;6.22;2.28;;;;;;;;;;5053334;28;20079;-75
2023/05/03 10:34:25;;;;;;;6.07;2.70;;;;;;;;;;5041289;28;20407;-75
2023/05/03 10:36:54;;;;;;;7.70;3.15;;;;;;;;;;5052992;28;20040;-75
2023/05/03 10:39:20;;;;;;;11.45;3.25;;;;;;;;;;5055407;28;20076;-75
2023/05/03 10:41:57;;;;;;;9.57;2.70;;;;;;;;;;5055664;28;20115;-76
2023/05/03 10:44:50;;;;;;;5.10;2.33;;;;;;;;;;5047863;28;20036;-76
2023/05/03 10:47:17;;;;;;;8.25;3.20;;;;;;;;;;5030139;28;20416;-75
2023/05/03 10:49:43;;;;;;;8.05;2.67;;;;;;;;;;5032211;28;20044;-78
2023/05/03 10:52:27;;;;;;;5.55;2.35;;;;;;;;;;5033224;28;20556;-74
2023/05/03 10:54:53;;;;;;;4.60;2.60;;;;;;;;;;5032789;28;20033;-76
2023/05/03 10:57:19;;;;;;;7.18;2.75;;;;;;;;;;5030879;28;20495;-75
2023/05/03 10:59:47;;;;;;;6.80;2.83;;;;;;;;;;5048445;28;20110;-75
2023/05/03 11:02:16;;;;;;;7.40;2.67;;;;;;;;;;5052892;28;20017;-75
2023/05/03 11:04:44;;;;;;;4.90;2.95;;;;;;;;;;5053350;28;20025;-76
2023/05/03 11:07:11;;;;;;;11.13;3.75;;;;;;;;;;5053155;28;20057;-76
2023/05/03 11:09:37;;;;;;;5.45;2.60;;;;;;;;;;5053181;28;20032;-76
2023/05/03 11:12:04;;;;;;;6.20;2.88;;;;;;;;;;5051419;28;20017;-75
2023/05/03 11:14:30;;;;;;;6.03;2.63;;;;;;;;;;5053347;28;20032;-76
2023/05/03 11:16:56;;;;;;;9.00;2.90;;;;;;;;;;5051291;28;20112;-75
2023/05/03 11:19:23;;;;;;;10.38;3.05;;;;;;;;;;5052868;28;20108;-77
2023/05/03 11:21:50;;;;;;;11.07;2.92;;;;;;;;;;5052717;28;20048;-76
2023/05/03 11:24:16;;;;;;;4.80;2.40;;;;;;;;;;5053391;28;20109;-77
2023/05/03 11:26:42;;;;;;;7.90;2.78;;;;;;;;;;5052744;28;20414;-76
2023/05/03 11:29:12;;;;;;;7.18;2.30;;;;;;;;;;5052692;28;20025;-75
2023/05/03 11:31:41;;;;;;;8.50;3.10;;;;;;;;;;5053089;28;20514;-76
2023/05/03 11:34:07;;;;;;;6.10;2.33;;;;;;;;;;5053528;28;20063;-76
2023/05/03 11:36:34;;;;;;;8.20;2.60;;;;;;;;;;5053383;28;20061;-76
2023/05/03 11:39:00;;;;;;;5.40;2.13;;;;;;;;;;5053205;28;20120;-76
2023/05/03 11:41:26;;;;;;;8.88;2.55;;;;;;;;;;5051983;28;20391;-76
2023/05/03 11:43:52;;;;;;;6.22;2.30;;;;;;;;;;5053006;28;20055;-77
2023/05/03 11:46:22;;;;;;;6.63;2.33;;;;;;;;;;5052197;28;20483;-76
2023/05/03 11:48:51;;;;;;;9.93;2.55;;;;;;;;;;5051998;28;20025;-76
2023/05/03 11:51:21;;;;;;;6.97;2.30;;;;;;;;;;5052110;28;20045;-76
2023/05/03 11:53:48;;;;;;;7.05;2.15;;;;;;;;;;5050808;28;20029;-76
2023/05/03 11:56:16;;;;;;;5.57;2.83;;;;;;;;;;5052071;28;20061;-76
2023/05/03 11:58:59;;;;;;;8.30;2.92;;;;;;;;;;5051940;28;20028;-76
2023/05/03 12:01:27;;;;;;;6.40;2.60;;;;;;;;;;5051807;28;20043;-76
2023/05/03 12:03:57;;;;;;;7.15;2.90;;;;;;;;;;5051975;28;20078;-75
2023/05/03 12:06:23;;;;;;;9.15;2.75;;;;;;;;;;5050526;28;20027;-76
2023/05/03 12:08:50;;;;;;;5.28;2.40;;;;;;;;;;5051773;28;20025;-75
2023/05/03 12:11:16;;;;;;;6.20;2.63;;;;;;;;;;5052943;28;20028;-75
2023/05/03 12:13:42;;;;;;;8.63;2.67;;;;;;;;;;5052013;28;20033;-75
2023/05/03 12:16:08;;;;;;;8.82;2.60;;;;;;;;;;5051080;28;20052;-76
2023/05/03 12:18:48;;;;;;;9.20;2.70;;;;;;;;;;5051492;28;20104;-75
2023/05/03 12:21:14;;;;;;;6.80;2.10;;;;;;;;;;5051904;28;20029;-76
2023/05/03 12:23:41;;;;;;;5.97;1.83;;;;;;;;;;5051946;28;20021;-75
2023/05/03 12:26:07;;;;;;;7.18;1.98;;;;;;;;;;5051326;28;20453;-75
2023/05/03 12:28:35;;;;;;;6.10;2.33;;;;;;;;;;5056898;22;20072;-75
2023/05/03 12:31:17;;;;;;;8.40;2.42;;;;;;;;;;5031340;28;20034;-73
2023/05/03 12:34:35;;;;;;;;;;;;;;;;;;;;;
2023/05/03 12:37:01;;;;;;;9.95;2.92;;;;;;;;;;4998405;28;20411;-74
2023/05/03 12:39:27;;;;;;;7.45;2.40;;;;;;;;;;5031783;28;20064;-74
2023/05/03 12:41:53;;;;;;;4.90;2.58;;;;;;;;;;5032282;28;20065;-74
2023/05/03 12:44:20;;;;;;;7.28;2.22;;;;;;;;;;5031972;28;20155;-74
2023/05/03 12:46:46;;;;;;;6.95;2.42;;;;;;;;;;5031275;28;20060;-74
2023/05/03 12:49:12;;;;;;;6.20;2.30;;;;;;;;;;5031894;28;20026;-75
2023/05/03 12:51:38;;;;;;;8.77;2.47;;;;;;;;;;5031689;28;20047;-74
2023/05/03 12:54:05;;;;;;;5.97;2.50;;;;;;;;;;5031683;28;20021;-74
2023/05/03 12:56:31;;;;;;;6.40;2.58;;;;;;;;;;5031599;28;20022;-75
2023/05/03 12:58:57;;;;;;;5.78;2.88;;;;;;;;;;5031388;28;20108;-75
2023/05/03 13:01:23;;;;;;;7.50;2.35;;;;;;;;;;5031741;28;20061;-75
2023/05/03 13:03:49;;;;;;;6.88;2.78;;;;;;;;;;5031786;28;20073;-74
2023/05/03 13:06:15;;;;;;;10.35;2.58;;;;;;;;;;5030175;28;20554;-74
2023/05/03 13:09:29;;;;;;;7.75;2.20;;;;;;;;;;5054685;23;20455;-74
2023/05/03 13:11:55;;;;;;;5.90;2.17;;;;;;;;;;5028067;28;20045;-75
2023/05/03 13:14:22;;;;;;;8.38;2.70;;;;;;;;;;5035341;28;20021;-75
2023/05/03 13:16:50;;;;;;;4.20;2.10;;;;;;;;;;5034657;28;20029;-75
2023/05/03 13:19:17;;;;;;;7.70;2.83;;;;;;;;;;5035033;28;20021;-75
2023/05/03 13:21:43;;;;;;;9.40;2.53;;;;;;;;;;5035523;28;20026;-74
2023/05/03 13:24:09;;;;;;;6.93;2.50;;;;;;;;;;5035617;28;20107;-75
2023/05/03 13:26:35;;;;;;;5.93;1.95;;;;;;;;;;5035148;28;20032;-75
2023/05/03 13:29:01;;;;;;;5.88;2.40;;;;;;;;;;5035516;28;20033;-75
2023/05/03 13:31:28;;;;;;;8.65;2.45;;;;;;;;;;5035766;28;20511;-76
2023/05/03 13:33:55;;;;;;;7.60;2.50;;;;;;;;;;5036149;28;20037;-75
2023/05/03 13:36:22;;;;;;;7.07;2.20;;;;;;;;;;5036042;28;20021;-74
2023/05/03 13:53:56;;;;;;;6.38;1.98;;;;;;;;;;4995034;28;20085;-75
2023/05/03 13:56:25;;;;;;;8.05;2.95;;;;;;;;;;4990834;28;20038;-74
2023/05/03 13:58:55;;;;;;;4.22;1.60;;;;;;;;;;4994869;28;20038;-75
2023/05/03 14:01:25;;;;;;;6.60;2.30;;;;;;;;;;4994929;28;20113;-75
2023/05/03 14:04:30;;;;;;;;;;;;;;;;;;;;;
2023/05/03 14:06:57;;;;;;;6.25;2.40;;;;;;;;;;4971646;28;20031;-76
2023/05/03 14:09:46;;;;;;;5.13;1.90;;;;;;;;;;4994672;28;20069;-75
2023/05/03 14:12:36;;;;;;;4.88;2.22;;;;;;;;;;4994662;28;20031;-74
2023/05/03 14:15:05;;;;;;;7.30;2.08;;;;;;;;;;4992166;28;20034;-74
2023/05/03 14:20:45;;;;;;;8.75;2.60;;;;;;;;;;4953641;29;20110;-75
2023/05/03 14:23:29;;;;;;;5.97;2.13;;;;;;;;;;4994641;28;20026;-75
2023/05/03 14:29:31;;;;;;;5.57;2.08;;;;;;;;;;4896728;29;20040;-75
2023/05/03 14:35:17;;;;;;;;;;;;;;;;;;;;;
2023/05/03 14:50:08;;;;;;;8.73;2.47;;;;;;;;;;4791894;22;20045;-75
2023/05/03 14:55:38;;;;;;;6.72;2.33;;;;;;;;;;5021401;28;20037;-75
2023/05/03 15:01:29;;;;;;;7.47;1.98;;;;;;;;;;5033509;28;20040;-75
2023/05/03 15:04:13;;;;;;;5.75;2.17;;;;;;;;;;4998293;28;20049;-75
2023/05/03 15:06:47;;;;;;;5.55;2.25;;;;;;;;;;5033838;28;20029;-75
2023/05/03 15:09:13;;;;;;;7.50;2.60;;;;;;;;;;5033845;28;20025;-74
2023/05/03 15:12:00;;;;;;;5.68;1.73;;;;;;;;;;5032126;28;20511;-75
2023/05/03 15:17:31;;;;;;;4.63;2.22;;;;;;;;;;5034449;28;20068;-75
2023/05/03 15:20:19;;;;;;;3.75;1.85;;;;;;;;;;5034154;28;20511;-75
2023/05/03 15:25:45;;;;;;;6.25;2.08;;;;;;;;;;5024488;28;20038;-75
2023/05/03 15:45:27;;;;;;;5.05;1.85;;;;;;;;;;5079228;22;20508;-75
2023/05/03 15:48:14;;;;;;;6.65;1.75;;;;;;;;;;5012324;28;20022;-74
2023/05/03 15:51:16;;;;;;;7.90;2.17;;;;;;;;;;5012383;28;20488;-75
2023/05/03 15:53:48;;;;;;;6.55;2.28;;;;;;;;;;5012226;28;20030;-73
2023/05/03 15:56:20;;;;;;;5.82;2.85;;;;;;;;;;5012356;28;20022;-74
2023/05/03 15:58:54;;;;;;;6.38;1.83;;;;;;;;;;5011846;28;20510;-73